createdAt,value
2022-08-04T00:02:03.784Z,7.20
2022-08-04T00:04:43.215Z,7.35
2022-08-04T00:07:20.296Z,6.70
2022-08-04T00:10:08.945Z,7.20
2022-08-04T00:12:45.143Z,7.65
2022-08-04T00:15:16.705Z,6.93
2022-08-04T00:17:59.603Z,6.93
2022-08-04T00:20:32.187Z,7.30
2022-08-04T00:23:01.796Z,7.90
2022-08-04T00:25:29.717Z,7.65
2022-08-04T00:27:56.483Z,7.63
2022-08-04T00:30:24.210Z,8.20
2022-08-04T00:32:52.237Z,7.53
2022-08-04T00:35:19.446Z,7.25
2022-08-04T00:37:46.593Z,7.45
2022-08-04T00:40:28.921Z,7.95
2022-08-04T00:43:08.689Z,8.38
2022-08-04T00:46:15.424Z,8.30
2022-08-04T00:48:58.849Z,7.88
2022-08-04T00:51:42.147Z,7.80
2022-08-04T00:54:20.998Z,8.10
2022-08-04T00:57:34.096Z,7.85
2022-08-04T01:00:12.321Z,8.10
2022-08-04T01:02:51.718Z,8.27
2022-08-04T01:05:38.237Z,8.27
2022-08-04T01:08:34.406Z,8.63
2022-08-04T01:11:56.721Z,8.88
2022-08-04T01:14:39.448Z,8.43
2022-08-04T01:17:21.826Z,9.50
2022-08-04T01:20:08.679Z,8.43
2022-08-04T01:23:35.176Z,9.30
2022-08-04T01:26:42.379Z,8.38
2022-08-04T01:29:16.467Z,9.07
2022-08-04T01:31:49.281Z,9.50
2022-08-04T01:34:19.166Z,9.15
2022-08-04T01:36:57.687Z,9.65
2022-08-04T01:39:40.535Z,9.63
2022-08-04T01:42:09.940Z,10.02
2022-08-04T01:44:39.556Z,9.30
2022-08-04T01:47:08.778Z,8.57
2022-08-04T01:49:40.559Z,10.02
2022-08-04T01:52:10.260Z,10.20
2022-08-04T01:54:39.487Z,9.63
2022-08-04T01:57:37.111Z,9.43
2022-08-04T01:59:56.238Z,9.80
2022-08-04T02:02:24.473Z,8.90
2022-08-04T02:04:52.104Z,10.30
2022-08-04T02:07:43.225Z,10.20
2022-08-04T02:10:41.306Z,9.55
2022-08-04T02:13:28.201Z,8.95
2022-08-04T02:16:16.615Z,10.45
2022-08-04T02:18:50.289Z,10.13
2022-08-04T02:21:20.251Z,10.63
2022-08-04T02:23:54.055Z,9.95
2022-08-04T02:26:26.101Z,10.70
2022-08-04T02:29:19.419Z,10.85
2022-08-04T02:31:49.350Z,10.98
2022-08-04T02:34:29.037Z,9.90
2022-08-04T02:36:59.146Z,10.75
2022-08-04T02:39:41.481Z,10.90
2022-08-04T02:42:16.695Z,10.15
2022-08-04T02:44:47.368Z,10.25
2022-08-04T02:47:14.984Z,10.23
2022-08-04T02:49:45.616Z,10.85
2022-08-04T02:52:15.205Z,10.57
2022-08-04T02:54:44.515Z,10.23
2022-08-04T02:57:15.450Z,10.57
2022-08-04T03:00:10.309Z,9.80
2022-08-04T03:02:49.288Z,10.05
2022-08-04T03:05:25.296Z,10.85
2022-08-04T03:08:13.762Z,10.10
2022-08-04T03:11:05.745Z,10.70
2022-08-04T03:14:10.581Z,9.50
2022-08-04T03:17:02.974Z,10.48
2022-08-04T03:19:48.873Z,10.13
2022-08-04T03:22:27.628Z,10.05
2022-08-04T03:25:29.742Z,9.93
2022-08-04T03:28:17.515Z,10.10
2022-08-04T03:31:18.357Z,10.05
2022-08-04T03:34:00.102Z,10.65
2022-08-04T03:36:41.995Z,9.43
2022-08-04T03:39:27.755Z,10.40
2022-08-04T03:42:16.101Z,9.93
2022-08-04T03:45:24.564Z,10.65
2022-08-04T03:48:00.382Z,9.93
2022-08-04T03:50:42.166Z,10.02
2022-08-04T03:53:27.098Z,9.95
2022-08-04T03:56:41.493Z,9.30
2022-08-04T03:59:24.704Z,10.80
2022-08-04T04:02:39.973Z,10.35
2022-08-04T04:05:29.386Z,9.23
2022-08-04T04:08:27.481Z,10.10
2022-08-04T04:11:19.205Z,9.77
2022-08-04T04:13:55.450Z,10.00
2022-08-04T04:16:44.000Z,10.13
2022-08-04T04:19:29.527Z,10.70
2022-08-04T04:22:08.784Z,9.88
2022-08-04T04:24:45.275Z,9.57
2022-08-04T04:27:27.325Z,9.02
2022-08-04T04:30:16.263Z,9.48
2022-08-04T04:33:07.862Z,9.88
2022-08-04T04:36:13.826Z,8.73
2022-08-04T04:39:02.765Z,9.55
2022-08-04T04:41:46.981Z,9.52
2022-08-04T04:44:48.941Z,8.88
2022-08-04T04:48:07.632Z,8.98
2022-08-04T04:50:36.856Z,9.35
2022-08-04T04:53:31.046Z,9.27
2022-08-04T04:56:11.829Z,8.43
2022-08-04T04:58:39.983Z,8.48
2022-08-04T05:01:26.223Z,8.43
2022-08-04T05:04:27.002Z,7.43
2022-08-04T05:07:10.638Z,7.45
2022-08-04T05:09:55.988Z,7.55
2022-08-04T05:14:31.694Z,8.40
2022-08-04T05:15:30.478Z,8.27
2022-08-04T05:18:00.970Z,9.18
2022-08-04T05:20:38.848Z,8.18
2022-08-04T05:23:19.597Z,8.10
2022-08-04T05:25:59.677Z,8.32
2022-08-04T05:28:29.754Z,7.90
2022-08-04T05:31:04.147Z,7.57
2022-08-04T05:33:42.740Z,7.15
2022-08-04T05:36:35.299Z,7.30
2022-08-04T05:39:13.359Z,7.55
2022-08-04T05:41:45.502Z,7.50
2022-08-04T05:44:19.807Z,7.63
2022-08-04T05:46:54.335Z,8.05
2022-08-04T05:49:27.021Z,7.38
2022-08-04T05:51:56.891Z,7.53
2022-08-04T05:54:24.666Z,6.65
2022-08-04T05:56:53.701Z,7.60
2022-08-04T05:59:21.068Z,8.25
2022-08-04T06:01:56.301Z,6.75
2022-08-04T06:04:33.452Z,8.07
2022-08-04T06:07:00.358Z,6.95
2022-08-04T06:09:27.441Z,7.25
2022-08-04T06:12:04.003Z,7.45
2022-08-04T06:14:36.001Z,7.93
2022-08-04T06:17:06.086Z,7.30
2022-08-04T06:20:02.931Z,6.82
2022-08-04T06:22:44.675Z,7.30
2022-08-04T06:25:15.749Z,6.30
2022-08-04T06:27:43.280Z,5.40
2022-08-04T06:30:14.758Z,5.47
2022-08-04T06:32:48.051Z,5.80
2022-08-04T06:35:19.864Z,5.95
2022-08-04T06:37:48.213Z,4.90
2022-08-04T06:40:31.231Z,5.40
2022-08-04T06:43:06.509Z,5.20
2022-08-04T06:45:37.157Z,5.18
2022-08-04T06:48:06.429Z,5.00
2022-08-04T06:51:32.308Z,5.43
2022-08-04T06:53:25.411Z,5.43
2022-08-04T06:55:53.459Z,5.50
2022-08-04T06:58:21.987Z,5.30
2022-08-04T07:00:50.002Z,5.32
2022-08-04T07:03:19.235Z,5.40
2022-08-04T07:05:49.755Z,5.38
2022-08-04T07:08:17.273Z,4.82
2022-08-04T07:10:45.334Z,5.30
2022-08-04T07:13:12.581Z,5.15
2022-08-04T07:15:44.108Z,5.05
2022-08-04T07:18:11.087Z,4.65
2022-08-04T07:20:42.894Z,5.40
2022-08-04T07:23:12.009Z,4.88
2022-08-04T07:25:59.570Z,5.45
2022-08-04T07:28:28.148Z,5.03
2022-08-04T07:30:56.804Z,4.53
2022-08-04T07:33:24.785Z,4.78
2022-08-04T07:36:05.986Z,5.07
2022-08-04T07:38:48.709Z,4.65
2022-08-04T07:41:42.530Z,4.70
2022-08-04T07:44:14.345Z,4.43
2022-08-04T07:46:41.706Z,4.15
2022-08-04T07:49:08.769Z,4.22
2022-08-04T07:51:36.826Z,3.92
2022-08-04T07:54:05.512Z,4.38
2022-08-04T07:56:35.437Z,3.58
2022-08-04T07:59:02.686Z,3.15
2022-08-04T08:01:30.344Z,3.22
2022-08-04T08:03:58.680Z,3.30
2022-08-04T08:06:33.191Z,3.28
2022-08-04T08:09:14.342Z,3.10
2022-08-04T08:12:38.495Z,2.92
2022-08-04T08:14:38.333Z,3.13
2022-08-04T08:17:05.481Z,2.97
2022-08-04T08:19:33.563Z,3.67
2022-08-04T08:22:01.984Z,3.00
2022-08-04T08:24:31.209Z,2.95
2022-08-04T08:27:00.136Z,3.03
2022-08-04T08:29:29.501Z,2.75
2022-08-04T08:32:01.393Z,3.03
2022-08-04T08:34:31.339Z,3.45
2022-08-04T08:37:23.600Z,2.75
2022-08-04T08:40:04.464Z,2.97
2022-08-04T08:42:47.540Z,2.72
2022-08-04T08:45:32.925Z,2.67
2022-08-04T08:48:33.396Z,2.65
2022-08-04T08:51:25.027Z,2.70
2022-08-04T08:54:15.930Z,2.75
2022-08-04T08:57:03.279Z,2.95
2022-08-04T08:59:57.890Z,3.30
2022-08-04T09:02:34.307Z,3.00
2022-08-04T09:05:29.075Z,3.25
2022-08-04T09:08:26.433Z,3.58
2022-08-04T09:10:57.695Z,3.22
2022-08-04T09:13:34.083Z,3.33
2022-08-04T09:16:27.630Z,3.20
2022-08-04T09:19:02.333Z,3.28
2022-08-04T09:21:36.194Z,3.72
2022-08-04T09:24:34.758Z,3.65
2022-08-04T09:27:09.927Z,3.28
2022-08-04T09:29:43.419Z,4.38
2022-08-04T09:32:32.156Z,4.00
2022-08-04T09:35:13.311Z,4.30
2022-08-04T09:37:48.602Z,3.92
2022-08-04T09:40:31.656Z,3.70
2022-08-04T09:43:59.360Z,3.90
2022-08-04T09:46:23.530Z,3.72
2022-08-04T09:49:10.889Z,3.28
2022-08-04T09:51:59.763Z,2.75
2022-08-04T09:54:38.886Z,2.35
2022-08-04T09:57:45.829Z,2.58
2022-08-04T10:00:17.796Z,2.63
2022-08-04T10:02:52.155Z,2.65
2022-08-04T10:05:26.327Z,2.15
2022-08-04T10:08:35.103Z,2.20
2022-08-04T10:11:14.934Z,2.50
2022-08-04T10:14:01.569Z,2.20
2022-08-04T10:16:54.489Z,2.30
2022-08-04T10:19:26.785Z,2.45
2022-08-04T10:22:29.088Z,2.28
2022-08-04T10:26:03.101Z,2.47
2022-08-04T10:28:09.118Z,2.20
2022-08-04T10:30:40.700Z,2.00
2022-08-04T10:33:44.987Z,2.00
2022-08-04T10:36:17.579Z,1.70
2022-08-04T10:38:59.830Z,1.50
2022-08-04T10:41:45.367Z,1.50
2022-08-04T10:44:23.766Z,1.75
2022-08-04T10:46:56.040Z,1.58
2022-08-04T10:49:31.588Z,2.08
2022-08-04T10:52:11.146Z,1.70
2022-08-04T10:54:49.993Z,1.90
2022-08-04T10:57:40.815Z,2.00
2022-08-04T11:00:14.845Z,1.75
2022-08-04T11:02:54.010Z,1.33
2022-08-04T11:05:46.868Z,1.70
2022-08-04T11:08:21.529Z,1.50
2022-08-04T11:11:00.670Z,1.77
2022-08-04T11:13:45.047Z,1.40
2022-08-04T11:16:26.594Z,1.20
2022-08-04T11:19:20.740Z,1.23
2022-08-04T11:21:56.659Z,1.25
2022-08-04T11:24:34.873Z,1.02
2022-08-04T11:27:06.899Z,1.13
2022-08-04T11:30:01.384Z,0.98
2022-08-04T11:32:37.619Z,1.30
2022-08-04T11:35:09.536Z,1.00
2022-08-04T11:37:46.879Z,1.30
2022-08-04T11:40:27.921Z,1.40
2022-08-04T11:43:02.464Z,1.20
2022-08-04T11:45:38.603Z,1.15
2022-08-04T11:48:11.313Z,1.27
2022-08-04T11:50:53.443Z,1.25
2022-08-04T11:53:24.569Z,1.40
2022-08-04T11:56:08.174Z,0.90
2022-08-04T11:58:38.098Z,0.82
2022-08-04T12:01:32.967Z,1.13
2022-08-04T12:04:10.306Z,1.02
2022-08-04T12:07:15.246Z,0.82
2022-08-04T12:10:10.008Z,0.77
2022-08-04T12:13:14.605Z,0.98
2022-08-04T12:16:02.429Z,1.20
2022-08-04T12:18:45.593Z,0.93
2022-08-04T12:21:37.680Z,1.27
2022-08-04T12:24:08.580Z,1.38
2022-08-04T12:26:41.548Z,1.20
2022-08-04T12:29:11.879Z,1.33
2022-08-04T12:31:47.352Z,1.50
2022-08-04T12:34:40.992Z,1.50
2022-08-04T12:37:35.419Z,1.30
2022-08-04T12:40:27.635Z,1.48
2022-08-04T12:42:59.692Z,1.48
2022-08-04T12:45:27.472Z,1.17
2022-08-04T12:47:57.909Z,1.55
2022-08-04T12:50:25.519Z,1.20
2022-08-04T12:53:04.094Z,1.20
2022-08-04T12:55:34.482Z,1.30
2022-08-04T12:58:04.327Z,1.20
2022-08-04T13:00:40.556Z,1.17
2022-08-04T13:03:11.939Z,0.93
2022-08-04T13:05:42.871Z,1.33
2022-08-04T13:08:11.445Z,1.00
2022-08-04T13:10:46.877Z,1.23
2022-08-04T13:13:17.447Z,1.08
2022-08-04T13:15:56.591Z,1.25
2022-08-04T13:18:29.564Z,1.48
2022-08-04T13:21:19.996Z,0.90
2022-08-04T13:24:10.654Z,1.20
2022-08-04T13:26:55.955Z,0.98
2022-08-04T13:29:59.201Z,1.13
2022-08-04T13:32:22.292Z,1.30
2022-08-04T13:34:53.736Z,1.20
2022-08-04T13:37:26.754Z,1.33
2022-08-04T13:39:56.577Z,0.90
2022-08-04T13:42:26.888Z,1.45
2022-08-04T13:44:57.216Z,1.30
2022-08-04T13:47:29.142Z,1.23
2022-08-04T13:50:30.202Z,1.27
2022-08-04T13:52:59.885Z,1.40
2022-08-04T13:55:32.675Z,1.67
2022-08-04T13:58:10.664Z,1.77
2022-08-04T14:00:45.296Z,2.20
2022-08-04T14:03:24.383Z,2.13
2022-08-04T14:06:10.645Z,2.50
2022-08-04T14:08:47.675Z,2.28
2022-08-04T14:12:10.703Z,2.55
2022-08-04T14:14:23.448Z,2.75
2022-08-04T14:17:01.573Z,3.05
2022-08-04T14:19:48.505Z,3.65
2022-08-04T14:22:27.678Z,3.45
2022-08-04T14:25:16.590Z,3.30
2022-08-04T14:27:48.468Z,3.70
2022-08-04T14:30:24.402Z,3.90
2022-08-04T14:34:03.126Z,4.25
2022-08-04T14:35:59.604Z,3.53
2022-08-04T14:38:48.784Z,3.75
2022-08-04T14:41:17.914Z,3.70
2022-08-04T14:43:51.556Z,3.50
2022-08-04T14:46:18.539Z,3.33
2022-08-04T14:49:04.587Z,3.53
2022-08-04T14:51:55.283Z,3.42
2022-08-04T14:54:31.328Z,3.03
2022-08-04T14:57:02.039Z,3.35
2022-08-04T14:59:41.632Z,3.03
2022-08-04T15:02:29.933Z,3.13
2022-08-04T15:04:57.783Z,2.60
2022-08-04T15:07:25.552Z,2.35
2022-08-04T15:09:52.734Z,2.65
2022-08-04T15:12:20.323Z,2.40
2022-08-04T15:14:47.252Z,2.50
2022-08-04T15:17:29.688Z,3.70
2022-08-04T15:19:58.442Z,3.08
2022-08-04T15:22:25.454Z,3.10
2022-08-04T15:24:55.397Z,3.05
2022-08-04T15:27:27.294Z,3.88
2022-08-04T15:30:00.903Z,4.90
2022-08-04T15:32:41.772Z,4.22
2022-08-04T15:35:12.583Z,5.03
2022-08-04T15:37:57.664Z,3.78
2022-08-04T15:40:56.439Z,2.65
2022-08-04T15:43:42.193Z,2.33
2022-08-04T15:46:44.288Z,2.40
2022-08-04T15:48:55.956Z,2.78
2022-08-04T15:51:31.823Z,2.80
2022-08-04T15:54:03.688Z,1.98
2022-08-04T15:56:35.074Z,2.00
2022-08-04T15:59:01.859Z,1.80
2022-08-04T16:01:28.661Z,1.80
2022-08-04T16:03:59.841Z,1.70
2022-08-04T16:06:29.626Z,1.80
2022-08-04T16:09:05.045Z,1.95
2022-08-04T16:11:37.266Z,1.90
2022-08-04T16:14:04.728Z,2.38
2022-08-04T16:16:46.770Z,2.42
2022-08-04T16:19:34.958Z,2.90
2022-08-04T16:22:04.081Z,2.58
2022-08-04T16:24:36.472Z,2.40
2022-08-04T16:27:08.657Z,1.75
2022-08-04T16:29:46.853Z,2.45
2022-08-04T16:32:16.729Z,1.98
2022-08-04T16:34:58.846Z,2.30
2022-08-04T16:37:37.896Z,1.92
2022-08-04T16:40:41.064Z,1.88
2022-08-04T16:43:16.688Z,1.77
2022-08-04T16:45:46.142Z,1.70
2022-08-04T16:48:15.636Z,1.85
2022-08-04T16:50:50.818Z,1.50
2022-08-04T16:54:02.598Z,1.40
2022-08-04T16:56:10.866Z,2.13
2022-08-04T16:58:37.866Z,2.38
2022-08-04T17:01:28.411Z,1.98
2022-08-04T17:04:04.823Z,1.45
2022-08-04T17:06:38.046Z,1.85
2022-08-04T17:09:17.807Z,1.63
2022-08-04T17:11:46.594Z,1.65
2022-08-04T17:14:13.845Z,1.85
2022-08-04T17:16:43.275Z,1.50
2022-08-04T17:19:24.365Z,2.10
2022-08-04T17:22:02.985Z,1.70
2022-08-04T17:24:33.555Z,1.70
2022-08-04T17:27:00.893Z,1.70
2022-08-04T17:29:42.946Z,1.58
2022-08-04T17:32:21.024Z,1.40
2022-08-04T17:34:50.629Z,1.60
2022-08-04T17:37:39.183Z,1.50
2022-08-04T17:40:17.916Z,1.70
2022-08-04T17:43:01.046Z,1.67
2022-08-04T17:48:24.906Z,1.70
2022-08-04T17:50:52.106Z,1.60
2022-08-04T17:54:01.776Z,1.20
2022-08-04T17:56:51.554Z,1.33
2022-08-04T17:59:55.566Z,1.60
2022-08-04T18:02:32.603Z,1.73
2022-08-04T18:05:06.230Z,1.52
2022-08-04T18:08:39.842Z,1.85
2022-08-04T18:10:44.644Z,1.73
2022-08-04T18:13:21.737Z,1.70
2022-08-04T18:15:51.153Z,1.58
2022-08-04T18:18:23.345Z,1.45
2022-08-04T18:20:50.710Z,2.03
2022-08-04T18:23:17.579Z,2.03
2022-08-04T18:25:51.403Z,1.90
2022-08-04T18:28:26.614Z,1.75
2022-08-04T18:30:55.201Z,1.88
2022-08-04T18:33:37.615Z,1.70
2022-08-04T18:36:34.779Z,1.75
2022-08-04T18:38:58.175Z,1.75
2022-08-04T18:41:27.680Z,1.77
2022-08-04T18:43:57.934Z,2.05
2022-08-04T18:46:26.966Z,1.73
2022-08-04T18:48:54.634Z,1.90
2022-08-04T18:51:25.147Z,2.10
2022-08-04T18:57:24.465Z,1.88
2022-08-04T18:59:33.719Z,2.30
2022-08-04T19:02:16.469Z,2.10
2022-08-04T19:04:44.769Z,2.15
2022-08-04T19:07:29.448Z,1.98
2022-08-04T19:09:59.738Z,2.08
2022-08-04T19:12:28.522Z,2.78
2022-08-04T19:15:08.752Z,2.28
2022-08-04T19:17:52.809Z,2.00
2022-08-04T19:20:25.463Z,2.15
2022-08-04T19:24:26.252Z,2.28
2022-08-04T19:26:02.680Z,2.30
2022-08-04T19:28:31.889Z,2.15
2022-08-04T19:31:02.013Z,1.92
2022-08-04T19:33:55.953Z,2.17
2022-08-04T19:36:17.285Z,1.65
2022-08-04T19:38:44.928Z,1.88
2022-08-04T19:41:14.642Z,2.28
2022-08-04T19:43:43.906Z,2.20
2022-08-04T19:46:11.319Z,2.67
2022-08-04T19:48:40.206Z,2.10
2022-08-04T19:51:07.819Z,1.85
2022-08-04T19:53:37.498Z,2.10
2022-08-04T19:56:05.376Z,2.22
2022-08-04T19:58:32.157Z,2.38
2022-08-04T20:00:58.983Z,2.22
2022-08-04T20:06:13.208Z,2.25
2022-08-04T20:08:48.343Z,1.98
2022-08-04T20:11:16.594Z,2.85
2022-08-04T20:13:45.303Z,2.70
2022-08-04T20:16:29.188Z,3.05
2022-08-04T20:19:03.118Z,2.50
2022-08-04T20:21:53.486Z,2.42
2022-08-04T20:24:37.791Z,2.45
2022-08-04T20:27:09.003Z,2.53
2022-08-04T20:29:43.166Z,2.10
2022-08-04T20:32:10.471Z,2.45
2022-08-04T20:34:41.547Z,2.70
2022-08-04T20:37:15.328Z,2.55
2022-08-04T20:39:42.679Z,3.80
2022-08-04T20:42:11.515Z,2.90
2022-08-04T20:44:46.237Z,2.72
2022-08-04T20:47:13.260Z,2.85
2022-08-04T20:49:41.000Z,3.67
2022-08-04T20:52:16.434Z,3.42
2022-08-04T20:54:48.609Z,3.80
2022-08-04T20:57:16.845Z,3.58
2022-08-04T20:59:44.145Z,3.08
2022-08-04T21:02:26.855Z,4.25
2022-08-04T21:04:53.986Z,3.70
2022-08-04T21:07:22.183Z,3.42
2022-08-04T21:09:50.695Z,3.65
2022-08-04T21:12:28.566Z,3.00
2022-08-04T21:15:01.534Z,4.05
2022-08-04T21:17:59.018Z,3.58
2022-08-04T21:20:28.517Z,3.47
2022-08-04T21:22:59.863Z,8.05
2022-08-04T21:25:29.724Z,3.67
2022-08-04T21:27:58.936Z,3.40
2022-08-04T21:30:31.020Z,3.25
2022-08-04T21:33:04.381Z,3.53
2022-08-04T21:35:37.861Z,3.90
2022-08-04T21:38:16.292Z,3.08
2022-08-04T21:41:01.943Z,3.28
2022-08-04T21:43:46.257Z,3.30
2022-08-04T21:46:13.077Z,3.05
2022-08-04T21:48:42.314Z,2.67
2022-08-04T21:51:56.737Z,2.83
2022-08-04T21:54:05.658Z,3.35
2022-08-04T21:56:33.354Z,2.60
2022-08-04T21:59:00.241Z,2.65
2022-08-04T22:01:50.009Z,2.53
2022-08-04T22:04:14.324Z,2.80
2022-08-04T22:06:42.068Z,2.63
2022-08-04T22:09:18.602Z,2.40
2022-08-04T22:11:50.618Z,2.90
2022-08-04T22:14:27.407Z,2.70
2022-08-04T22:16:57.649Z,2.90
2022-08-04T22:19:40.692Z,2.83
2022-08-04T22:22:12.678Z,2.78
2022-08-04T22:24:41.068Z,2.67
2022-08-04T22:27:12.022Z,2.63
2022-08-04T22:29:39.360Z,2.13
2022-08-04T22:32:11.692Z,2.40
2022-08-04T22:34:45.378Z,2.40
2022-08-04T22:37:12.730Z,2.35
2022-08-04T22:39:56.438Z,2.22
2022-08-04T22:42:24.171Z,2.05
2022-08-04T22:44:52.215Z,2.13
2022-08-04T22:47:20.369Z,1.80
2022-08-04T22:50:01.586Z,2.70
2022-08-04T22:52:37.149Z,2.30
2022-08-04T22:55:22.898Z,2.20
2022-08-04T22:58:04.544Z,2.33
2022-08-04T23:00:31.979Z,1.90
2022-08-04T23:02:58.873Z,2.30
2022-08-04T23:05:35.535Z,2.00
2022-08-04T23:08:05.091Z,2.20
2022-08-04T23:10:32.452Z,2.15
2022-08-04T23:13:03.975Z,2.00
2022-08-04T23:15:33.816Z,2.17
2022-08-04T23:18:01.313Z,2.20
2022-08-04T23:20:32.690Z,2.00
2022-08-04T23:23:00.676Z,2.70
2022-08-04T23:26:08.428Z,1.90
2022-08-04T23:28:30.977Z,1.98
2022-08-04T23:30:57.735Z,2.15
2022-08-04T23:33:24.949Z,2.00
2022-08-04T23:36:11.871Z,2.63
2022-08-04T23:38:39.219Z,2.17
2022-08-04T23:41:13.542Z,2.20
2022-08-04T23:43:49.576Z,2.25
2022-08-04T23:46:22.975Z,2.53
2022-08-04T23:48:51.043Z,2.30
2022-08-04T23:51:19.464Z,2.17
2022-08-04T23:54:02.427Z,2.30
2022-08-04T23:56:34.736Z,2.22
2022-08-04T23:59:03.653Z,2.47
